This is the latest recevied weather packets stored in our database for station/object KB8DOA. If no packets are shown the sender has not sent any weather packets the latest 10 day(s).
| Time | Temp. | Humidity | Pressure | Rain* | Wind** | Luminosity | Snow |
|---|---|---|---|---|---|---|---|
| 1777888504 | 23.33° C | 98% | 1013.9 hPa | 0 mm | - | 0 W/m² | - |
| 1777886104 | 23.33° C | 98% | 1013.6 hPa | 0 mm | - | 0 W/m² | - |
| 1777885804 | 23.33° C | 98% | 1013.6 hPa | 0 mm | - | 0 W/m² | - |
| 1777884904 | 23.33° C | 98% | 1013.7 hPa | 0 mm | - | 0 W/m² | - |
| 1777869604 | 23.89° C | 95% | 1015 hPa | 0 mm | - | 0 W/m² | - |
| 1777867803 | 23.89° C | 95% | 1014.9 hPa | 0 mm | - | 0 W/m² | - |
| 1777866004 | 23.89° C | 95% | 1015 hPa | 0 mm | - | 0 W/m² | - |
| 1777859704 | 23.33° C | 94% | 1015 hPa | 0 mm | - | 0 W/m² | - |
| 1777857304 | 23.89° C | 94% | 1014.5 hPa | 0 mm | - | 0 W/m² | - |
| 1777852804 | 23.89° C | 93% | 1014 hPa | 0 mm | - | 0 W/m² | - |
| 1777850404 | 24.44° C | 93% | 1013.8 hPa | 2.79 mm | - | 0 W/m² | - |
| 1777850104 | 24.44° C | 93% | 1013.8 hPa | 7.87 mm | - | 0 W/m² | - |
| 1777847404 | 24.44° C | 91% | 1013.4 hPa | 8.64 mm | - | 0 W/m² | - |
| 1777845604 | 25° C | 86% | 1013.6 hPa | 0 mm | - | 0 W/m² | - |
| 1777842003 | 25.56° C | 84% | 1013.7 hPa | 0 mm | - | 0 W/m² | - |
| 1777840204 | 25.56° C | 82% | 1013.1 hPa | 0 mm | - | 0 W/m² | - |
| 1777839003 | 25.56° C | 83% | 1013 hPa | 0 mm | - | 0 W/m² | - |
| 1777838404 | 25.56° C | 83% | 1012.8 hPa | 0 mm | - | 0 W/m² | - |
| 1777837504 | 25.56° C | 82% | 1012.7 hPa | 0 mm | - | 0 W/m² | - |
| 1777834804 | 25.56° C | 84% | 1013.8 hPa | 0 mm | - | 0 W/m² | - |
| 1777834504 | 25.56° C | 84% | 1014.3 hPa | 0 mm | - | 0 W/m² | - |
| 1777829103 | 25.56° C | 80% | 1012.5 hPa | 0 mm | - | 1292 W/m² | - |
| 1777828204 | 25.56° C | 82% | 1013.4 hPa | 0 mm | - | 1287 W/m² | - |
| 1777827004 | 25.56° C | 81% | 1012.9 hPa | 0 mm | - | 1268 W/m² | - |
| 1777823704 | 24.44° C | 89% | 1014.9 hPa | 0 mm | - | 1145 W/m² | - |
* Rain latest hour (hover to see other rain measurements)
** Current wind speed in m/s (hover to see current wind gust speed)